Kezdőlap
METAR-TAF:

METAR-TAF

Repülőterek :

Kuvaitváros, Kuvait

földrajzi szélesség: 29-13N, földrajzi hosszúság: 047-59E, magasság: 55 m

Jelenlegi meteorológiai megfigyelések

A jelentés 43 perccel ezelõtt készült, 02:00 UTC
Észak-északnyugati szél 10 kt
Hőmérséklet 19°C
Páratartalom 32%
Légköri nyomás 1017 hPa
Látótávolság 10 km, vagy több
felhőtlen 1500 m magasságban, és nincs gomolyfelhõ

METAR: OKBK 250200Z 34010KT CAVOK 19/02 Q1017 NOSIG

Idő: 05:43 (02:43 UTC)

Előrejelzés

A jelentés 3 órával és 58 perccel ezelõtt készült, 22:45 UTC
Az előrejelzés 25-én 00 óra UTC és 26-én 06 óra UTC között érvényes
Északnyugati szél 8 kt széllökések: 18 kt
Látótávolság: 7000 m

TAF: OKBK 242245Z 2500/2606 32008G18KT 7000 NSC

Meteorológiai megfigyelések és előrejelzések több, mint 4000 repülőtéren (METAR és TAF jelentéseket).

A térképen piros és sárga pontok jelzik az elérhető meteorológiai állomásokat.

Mozgassa az egeret a pont fölött, hogy megjelenjen az állomás neve.

Azután kattintson az időjárási megfigyelések és előrejelzések megtekintéséhez.

A térkép megváltoztatása: kattintson a fekete keresztel jelölt zöld gombra ráközelítéshez, a vonallal jelölt zöld gombra távolításhoz, vagy a zöld nyilakra a szomszédos térképek eléréséhez.


METAR-TAF: